Time;durP1;ratioP1;P1;durP2;ratioP2;P2;SDS_P1;SDS_P2;PMS_P1;PMS_P2;Temp;Humidity;BMP_temperature;BMP_pressure;BME280_temperature;BME280_humidity;BME280_pressure;Samples;Min_cycle;Max_cycle;Signal;HPM_P1;HPM_P2
2024/03/09 00:00:42;;;;;;;22.25;18.20;;;5.40;38.60;;;;;;4789922;29;20238;-43
2024/03/09 00:03:10;;;;;;;20.13;17.92;;;5.50;45.60;;;;;;4787618;29;20262;-46
2024/03/09 00:05:36;;;;;;;21.00;19.00;;;5.50;43.50;;;;;;4780715;29;20219;-45
2024/03/09 00:08:04;;;;;;;21.58;18.60;;;5.50;45.90;;;;;;4783770;29;20191;-43
2024/03/09 00:10:30;;;;;;;20.17;17.80;;;5.50;47.80;;;;;;4783409;29;20257;-46
2024/03/09 00:12:57;;;;;;;20.57;18.50;;;5.50;57.80;;;;;;4786598;29;20211;-46
2024/03/09 00:15:25;;;;;;;24.60;17.90;;;5.50;74.10;;;;;;4786384;29;20490;-46
2024/03/09 00:17:52;;;;;;;20.42;18.30;;;5.50;84.90;;;;;;4777714;29;20567;-46
2024/03/09 00:20:21;;;;;;;20.77;18.55;;;5.40;94.90;;;;;;4777716;29;20328;-47
2024/03/09 00:22:48;;;;;;;20.70;18.60;;;5.40;99.90;;;;;;4787964;29;20189;-42
2024/03/09 00:25:14;;;;;;;20.08;17.75;;;5.40;99.90;;;;;;4779797;29;20188;-47
2024/03/09 00:27:40;;;;;;;21.15;18.73;;;5.40;99.90;;;;;;4780986;29;20199;-42
2024/03/09 00:30:17;;;;;;;18.57;16.80;;;5.40;99.90;;;;;;4777450;29;20275;-43
2024/03/09 00:32:48;;;;;;;18.88;17.08;;;5.50;99.90;;;;;;4787148;29;20506;-46
2024/03/09 00:35:13;;;;;;;20.77;18.63;;;5.50;99.90;;;;;;4789342;29;20723;-44
2024/03/09 00:37:39;;;;;;;19.43;17.50;;;5.40;99.90;;;;;;4786867;29;20198;-49
2024/03/09 00:40:09;;;;;;;20.10;18.33;;;5.40;99.90;;;;;;4782567;29;20283;-47
2024/03/09 00:42:38;;;;;;;18.55;16.65;;;5.40;99.90;;;;;;4783901;29;20191;-44
2024/03/09 00:45:05;;;;;;;18.92;17.02;;;5.40;99.90;;;;;;4781265;29;20644;-42
2024/03/09 00:47:32;;;;;;;18.60;16.95;;;5.40;99.90;;;;;;4782003;29;20286;-46
2024/03/09 00:49:58;;;;;;;18.70;16.80;;;5.40;99.90;;;;;;4793835;29;20193;-44
2024/03/09 00:52:25;;;;;;;19.20;17.20;;;5.40;99.90;;;;;;4789863;29;21029;-45
2024/03/09 00:54:53;;;;;;;18.95;17.10;;;5.40;99.90;;;;;;4783510;29;20215;-47
2024/03/09 00:57:19;;;;;;;18.70;16.70;;;5.50;99.90;;;;;;4786534;29;20295;-45
2024/03/09 00:59:45;;;;;;;19.47;17.47;;;5.50;99.90;;;;;;4791490;29;20305;-44
2024/03/09 01:02:11;;;;;;;20.03;17.40;;;5.50;99.90;;;;;;4782970;29;20936;-43
2024/03/09 01:04:36;;;;;;;19.02;16.65;;;5.50;99.90;;;;;;4783590;29;20571;-44
2024/03/09 01:07:05;;;;;;;19.30;17.27;;;5.50;99.90;;;;;;4783542;29;20242;-46
2024/03/09 01:09:31;;;;;;;18.45;16.63;;;5.50;99.90;;;;;;4785893;29;20251;-44
2024/03/09 01:11:56;;;;;;;19.73;17.63;;;5.50;99.90;;;;;;4792399;29;20187;-44
2024/03/09 01:14:25;;;;;;;19.17;17.40;;;5.50;99.90;;;;;;4778114;29;20278;-45
2024/03/09 01:16:51;;;;;;;20.80;17.40;;;5.50;99.90;;;;;;4782514;29;20213;-45
2024/03/09 01:19:18;;;;;;;19.70;17.83;;;5.60;99.90;;;;;;4778182;29;20243;-44
2024/03/09 01:21:46;;;;;;;17.33;15.60;;;5.50;1.00;;;;;;4786135;29;20479;-42
2024/03/09 01:24:12;;;;;;;19.70;17.10;;;5.50;1.00;;;;;;4783045;29;20194;-50
2024/03/09 01:26:38;;;;;;;18.88;17.08;;;5.50;1.00;;;;;;4778298;29;20195;-43
2024/03/09 01:29:04;;;;;;;20.83;18.10;;;5.40;1.00;;;;;;4779721;29;20221;-43
2024/03/09 01:31:31;;;;;;;18.98;16.98;;;5.50;17.70;;;;;;4791621;29;20406;-43
2024/03/09 01:33:59;;;;;;;20.83;18.20;;;5.50;33.50;;;;;;4784433;29;20684;-45
2024/03/09 01:36:26;;;;;;;18.35;16.35;;;5.50;99.90;;;;;;4781739;29;20640;-47
2024/03/09 01:38:53;;;;;;;18.65;16.85;;;5.50;96.50;;;;;;4787399;29;20248;-42
2024/03/09 01:41:19;;;;;;;19.02;17.23;;;5.50;99.90;;;;;;4782940;29;20179;-47
2024/03/09 01:43:46;;;;;;;19.25;17.33;;;5.50;99.90;;;;;;4783848;29;20191;-42
2024/03/09 01:46:14;;;;;;;20.00;18.00;;;5.50;99.90;;;;;;4778296;29;20271;-43
2024/03/09 01:48:40;;;;;;;19.38;17.45;;;5.50;99.90;;;;;;4785709;29;20191;-44
2024/03/09 01:51:07;;;;;;;19.60;17.55;;;5.50;99.90;;;;;;4783578;29;20590;-46
2024/03/09 01:53:36;;;;;;;19.67;16.85;;;5.40;99.90;;;;;;4787248;29;20204;-59
2024/03/09 01:56:07;;;;;;;18.67;16.85;;;5.50;99.90;;;;;;4777550;29;20261;-59
2024/03/09 01:58:33;;;;;;;18.48;16.58;;;5.50;99.90;;;;;;4787980;29;20194;-59
2024/03/09 02:01:04;;;;;;;24.27;18.08;;;5.40;99.90;;;;;;4785029;29;20240;-59
2024/03/09 02:03:30;;;;;;;18.23;16.45;;;5.40;99.90;;;;;;4785559;29;20194;-61
2024/03/09 02:05:56;;;;;;;17.55;15.80;;;5.40;99.90;;;;;;4784359;29;20239;-53
2024/03/09 02:08:23;;;;;;;19.30;17.30;;;5.40;99.90;;;;;;4779418;29;20191;-54
2024/03/09 02:10:49;;;;;;;18.73;16.83;;;5.30;99.90;;;;;;4782321;29;20543;-58
2024/03/09 02:13:15;;;;;;;19.37;17.37;;;5.40;99.90;;;;;;4784092;29;20201;-41
2024/03/09 02:15:49;;;;;;;19.83;17.77;;;5.30;99.90;;;;;;4779530;29;20424;-45
2024/03/09 02:18:20;;;;;;;17.95;16.30;;;5.30;99.90;;;;;;4784927;29;20278;-44
2024/03/09 02:20:50;;;;;;;18.38;16.48;;;5.30;99.90;;;;;;4777934;29;20222;-50
2024/03/09 02:23:19;;;;;;;19.60;17.65;;;5.30;99.90;;;;;;4783741;29;20877;-43
2024/03/09 02:25:45;;;;;;;17.35;15.65;;;5.30;99.90;;;;;;4788805;29;20219;-58
2024/03/09 02:28:12;;;;;;;17.80;16.10;;;5.30;99.90;;;;;;4780604;29;20215;-59
2024/03/09 02:30:38;;;;;;;18.13;16.25;;;5.20;99.90;;;;;;4784037;29;20883;-59
2024/03/09 02:33:08;;;;;;;23.10;17.20;;;5.20;99.90;;;;;;4779789;29;20203;-58
2024/03/09 02:35:33;;;;;;;19.05;16.20;;;5.20;99.90;;;;;;4786145;29;20187;-59
2024/03/09 02:38:00;;;;;;;19.63;17.63;;;5.20;99.90;;;;;;4778813;29;20218;-59
2024/03/09 02:40:25;;;;;;;18.15;16.40;;;5.20;99.90;;;;;;4778376;29;20559;-58
2024/03/09 02:43:04;;;;;;;19.03;17.03;;;5.20;99.90;;;;;;4786327;29;20922;-59
2024/03/09 02:45:30;;;;;;;19.25;17.20;;;5.20;99.90;;;;;;4778662;29;20191;-59
2024/03/09 02:47:56;;;;;;;17.60;15.85;;;5.20;99.90;;;;;;4790061;29;20294;-56
2024/03/09 02:50:26;;;;;;;17.00;15.20;;;5.30;99.90;;;;;;4789360;29;20200;-59
2024/03/09 02:52:52;;;;;;;16.95;15.45;;;5.20;99.90;;;;;;4787365;29;20592;-59
2024/03/09 02:55:18;;;;;;;16.75;15.10;;;5.20;99.90;;;;;;4786606;29;20202;-60
2024/03/09 02:57:44;;;;;;;17.87;15.93;;;5.20;99.90;;;;;;4783151;29;20711;-59
2024/03/09 03:00:11;;;;;;;17.20;14.83;;;5.30;99.90;;;;;;4794094;29;20329;-60
2024/03/09 03:05:23;;;;;;;16.40;14.90;;;5.40;99.90;;;;;;4793532;29;20230;-60
2024/03/09 03:07:50;;;;;;;19.17;16.80;;;5.50;99.90;;;;;;4784990;29;20605;-51
2024/03/09 03:10:16;;;;;;;17.10;15.40;;;5.50;96.40;;;;;;4780740;29;20205;-60
2024/03/09 03:12:41;;;;;;;17.37;15.80;;;5.60;20.40;;;;;;4787955;29;20662;-60
2024/03/09 03:15:10;;;;;;;17.80;16.10;;;5.60;1.00;;;;;;4799581;29;20199;-59
2024/03/09 03:17:37;;;;;;;17.90;15.95;;;5.70;1.00;;;;;;4788099;29;20432;-59
2024/03/09 03:20:09;;;;;;;16.73;15.20;;;5.70;1.00;;;;;;4788213;29;20622;-60
2024/03/09 03:22:38;;;;;;;15.85;14.45;;;5.70;1.00;;;;;;4785739;29;20198;-60
2024/03/09 03:25:05;;;;;;;18.08;16.45;;;5.80;1.00;;;;;;4787035;29;20196;-44
2024/03/09 03:27:31;;;;;;;17.60;16.00;;;5.80;1.00;;;;;;4783045;29;20183;-45
2024/03/09 03:29:58;;;;;;;17.23;15.63;;;5.90;1.00;;;;;;4793082;29;20203;-48
2024/03/09 03:32:25;;;;;;;16.80;15.00;;;5.90;1.00;;;;;;4787220;29;20189;-50
2024/03/09 03:34:51;;;;;;;16.50;14.73;;;6.00;1.00;;;;;;4790779;29;20552;-46
2024/03/09 03:37:17;;;;;;;16.17;14.50;;;6.00;1.00;;;;;;4785142;29;20219;-46
2024/03/09 03:39:44;;;;;;;17.10;15.45;;;6.00;1.00;;;;;;4794836;29;20261;-46
2024/03/09 03:42:12;;;;;;;16.80;15.20;;;6.10;99.90;;;;;;4790005;29;20202;-43
2024/03/09 03:44:41;;;;;;;18.77;16.92;;;6.10;99.90;;;;;;4782326;29;20180;-47
2024/03/09 03:47:07;;;;;;;16.83;15.32;;;6.10;99.90;;;;;;4789241;29;20243;-48
2024/03/09 03:49:34;;;;;;;17.73;15.67;;;6.20;99.90;;;;;;4794277;29;20190;-43
2024/03/09 03:51:59;;;;;;;17.03;15.33;;;6.10;99.90;;;;;;4778977;29;20448;-43
2024/03/09 03:54:25;;;;;;;16.10;14.60;;;6.20;99.90;;;;;;4791742;29;21004;-44
2024/03/09 03:56:53;;;;;;;17.33;15.67;;;6.20;99.90;;;;;;4791826;29;21514;-48
2024/03/09 03:59:19;;;;;;;17.70;15.80;;;6.20;99.90;;;;;;4790872;29;20483;-50
2024/03/09 04:01:45;;;;;;;16.10;14.70;;;6.20;99.90;;;;;;4778174;29;20278;-45
2024/03/09 04:04:10;;;;;;;16.67;15.17;;;6.20;99.90;;;;;;4790733;29;20428;-44
2024/03/09 04:06:37;;;;;;;16.50;15.10;;;6.20;99.90;;;;;;4780429;29;20293;-47
2024/03/09 04:09:04;;;;;;;18.33;16.10;;;6.20;99.90;;;;;;4778284;29;20191;-45
2024/03/09 04:11:33;;;;;;;17.00;15.50;;;6.30;99.90;;;;;;4777457;29;20206;-47
2024/03/09 04:13:59;;;;;;;18.20;16.53;;;6.30;99.90;;;;;;4788225;29;20204;-44
2024/03/09 04:16:24;;;;;;;17.80;16.00;;;6.30;99.90;;;;;;4783775;29;20453;-49
2024/03/09 04:18:50;;;;;;;16.80;15.10;;;6.30;99.90;;;;;;4792253;29;20236;-43
2024/03/09 04:21:18;;;;;;;17.73;16.13;;;6.40;99.90;;;;;;4792669;29;20320;-47
2024/03/09 04:23:43;;;;;;;17.00;15.30;;;6.40;99.90;;;;;;4784479;29;20191;-49
2024/03/09 04:26:11;;;;;;;18.80;16.93;;;6.40;99.90;;;;;;4784397;29;20948;-43
2024/03/09 04:28:37;;;;;;;16.53;14.93;;;6.40;99.90;;;;;;4784993;29;20670;-43
2024/03/09 04:31:03;;;;;;;17.77;16.03;;;6.50;99.90;;;;;;4785603;29;20439;-43
2024/03/09 04:33:30;;;;;;;17.63;16.03;;;6.40;99.90;;;;;;4784421;29;20425;-60
2024/03/09 04:35:57;;;;;;;17.27;15.53;;;6.50;99.90;;;;;;4802427;29;21019;-58
2024/03/09 04:38:22;;;;;;;17.27;15.47;;;6.40;99.90;;;;;;4788054;29;20435;-60
2024/03/09 04:40:48;;;;;;;17.40;15.70;;;6.40;99.90;;;;;;4791751;29;21467;-45
2024/03/09 04:43:14;;;;;;;17.47;15.70;;;6.40;99.90;;;;;;4789220;29;20186;-42
2024/03/09 04:45:40;;;;;;;18.20;16.30;;;6.50;99.90;;;;;;4790637;29;20424;-43
2024/03/09 04:48:08;;;;;;;18.67;16.87;;;6.60;91.10;;;;;;4785817;29;21391;-46
2024/03/09 04:50:34;;;;;;;19.23;17.23;;;6.60;77.60;;;;;;4787970;29;20787;-47
2024/03/09 04:53:04;;;;;;;18.20;16.30;;;6.60;59.20;;;;;;4785579;29;20429;-44
2024/03/09 04:55:30;;;;;;;17.73;16.00;;;6.60;50.70;;;;;;4781793;29;21154;-48
2024/03/09 04:57:57;;;;;;;19.10;17.20;;;6.60;53.50;;;;;;4790351;29;20440;-43
2024/03/09 05:00:31;;;;;;;18.50;16.80;;;6.60;38.00;;;;;;4787719;29;20581;-45
2024/03/09 05:02:57;;;;;;;18.40;16.60;;;6.60;31.80;;;;;;4788165;29;20420;-42
2024/03/09 05:05:29;;;;;;;19.23;16.83;;;6.70;29.90;;;;;;4786836;29;20893;-48
2024/03/09 05:07:55;;;;;;;18.67;16.83;;;6.70;18.20;;;;;;4791305;29;20419;-46
2024/03/09 05:10:22;;;;;;;18.97;17.17;;;6.70;23.90;;;;;;4792842;29;20450;-45
2024/03/09 05:12:54;;;;;;;19.03;17.10;;;6.60;25.20;;;;;;4793253;29;20653;-47
2024/03/09 05:15:25;;;;;;;20.27;18.30;;;6.70;24.30;;;;;;4788784;29;20494;-45
2024/03/09 05:17:54;;;;;;;20.30;18.10;;;6.60;21.90;;;;;;4783712;29;20870;-44
2024/03/09 05:20:22;;;;;;;20.07;17.97;;;6.60;20.90;;;;;;4783256;29;20916;-46
2024/03/09 05:22:52;;;;;;;18.90;17.10;;;6.60;26.60;;;;;;4793784;29;21254;-41
2024/03/09 05:25:18;;;;;;;20.27;17.97;;;6.70;24.00;;;;;;4783346;29;20448;-44
2024/03/09 05:27:45;;;;;;;20.27;18.00;;;6.70;20.70;;;;;;4788851;29;20589;-47
2024/03/09 05:30:15;;;;;;;20.70;17.90;;;6.70;9.70;;;;;;4789987;29;20435;-43
2024/03/09 05:32:42;;;;;;;20.30;17.87;;;6.70;15.20;;;;;;4779689;29;20577;-46
2024/03/09 05:35:13;;;;;;;20.13;18.03;;;6.70;17.00;;;;;;4789122;29;20451;-47
2024/03/09 05:37:40;;;;;;;19.20;17.30;;;6.70;18.90;;;;;;4792430;29;20435;-44
2024/03/09 05:40:10;;;;;;;20.83;18.60;;;6.70;22.90;;;;;;4784713;29;20490;-45
2024/03/09 05:42:36;;;;;;;19.73;17.70;;;6.80;23.90;;;;;;4780273;29;20452;-44
2024/03/09 05:45:04;;;;;;;23.10;18.73;;;6.80;25.80;;;;;;4779705;29;20444;-45
2024/03/09 05:47:30;;;;;;;20.53;18.13;;;6.80;24.00;;;;;;4780615;29;20448;-45
2024/03/09 05:49:56;;;;;;;20.27;18.27;;;6.80;20.60;;;;;;4780981;29;20484;-47
2024/03/09 05:52:21;;;;;;;20.83;18.73;;;6.80;23.30;;;;;;4778931;29;20221;-45
2024/03/09 05:54:48;;;;;;;20.77;18.57;;;6.80;24.60;;;;;;4781775;29;20727;-46
2024/03/09 05:57:15;;;;;;;19.63;17.73;;;6.80;13.00;;;;;;4782780;29;20194;-45
2024/03/09 05:59:41;;;;;;;20.70;18.50;;;6.80;18.20;;;;;;4784895;29;20480;-44
2024/03/09 06:02:07;;;;;;;19.93;17.90;;;6.80;14.70;;;;;;4778031;29;20514;-46
2024/03/09 06:04:34;;;;;;;20.43;18.40;;;6.90;13.30;;;;;;4781123;29;20538;-48
2024/03/09 06:06:59;;;;;;;24.77;20.27;;;6.90;14.60;;;;;;4795947;29;20253;-46
2024/03/09 06:09:25;;;;;;;20.10;17.93;;;6.90;1.00;;;;;;4795324;29;20961;-44
2024/03/09 06:11:51;;;;;;;21.10;19.00;;;7.00;3.50;;;;;;4785225;29;20285;-47
2024/03/09 06:14:20;;;;;;;21.07;18.60;;;7.00;1.00;;;;;;4779994;29;20187;-45
2024/03/09 06:16:46;;;;;;;20.90;18.60;;;7.00;1.00;;;;;;4790032;29;20464;-46
2024/03/09 06:19:13;;;;;;;22.23;19.97;;;6.90;1.00;;;;;;4784409;29;20592;-44
2024/03/09 06:21:39;;;;;;;20.17;18.17;;;7.00;1.00;;;;;;4796050;29;20542;-44
2024/03/09 06:24:05;;;;;;;19.73;17.83;;;7.00;1.00;;;;;;4792051;29;20555;-45
2024/03/09 06:26:31;;;;;;;22.03;19.00;;;7.00;1.00;;;;;;4794378;29;20201;-46
2024/03/09 06:28:56;;;;;;;23.80;19.40;;;7.00;1.00;;;;;;4794320;29;21098;-47
2024/03/09 06:31:22;;;;;;;22.03;19.50;;;7.10;1.00;;;;;;4791929;29;20446;-45
2024/03/09 06:33:48;;;;;;;21.23;19.13;;;7.10;1.00;;;;;;4789622;29;20191;-47
2024/03/09 06:36:13;;;;;;;22.70;19.80;;;7.10;1.00;;;;;;4794439;29;20704;-49
2024/03/09 06:38:40;;;;;;;21.90;19.70;;;7.10;1.00;;;;;;4796162;29;20199;-44
2024/03/09 06:41:07;;;;;;;22.13;19.83;;;7.10;1.00;;;;;;4795016;29;20187;-47
2024/03/09 06:43:33;;;;;;;22.50;20.10;;;7.10;1.00;;;;;;4787910;29;20432;-44
2024/03/09 06:46:00;;;;;;;23.87;20.73;;;7.10;1.00;;;;;;4781220;29;20462;-44
2024/03/09 06:48:27;;;;;;;22.20;19.87;;;7.10;1.00;;;;;;4795052;29;20430;-46
2024/03/09 06:50:54;;;;;;;22.23;19.13;;;7.20;1.00;;;;;;4789970;29;21016;-45
2024/03/09 06:53:25;;;;;;;22.13;19.83;;;7.20;1.00;;;;;;4782366;29;20820;-43
2024/03/09 06:55:51;;;;;;;21.87;19.57;;;7.30;1.00;;;;;;4783737;29;20992;-44
2024/03/09 06:58:17;;;;;;;21.80;19.50;;;7.30;1.00;;;;;;4790584;29;20432;-46
2024/03/09 07:00:43;;;;;;;20.33;18.17;;;7.30;1.00;;;;;;4785137;29;20482;-46
2024/03/09 07:03:09;;;;;;;21.17;19.03;;;7.30;1.00;;;;;;4782311;29;20470;-42
2024/03/09 07:05:35;;;;;;;23.80;21.33;;;7.40;1.00;;;;;;4785723;29;20472;-46
2024/03/09 07:08:01;;;;;;;20.77;18.77;;;7.40;1.00;;;;;;4782330;29;20445;-49
2024/03/09 07:10:28;;;;;;;22.30;20.07;;;7.50;1.00;;;;;;4780046;29;20303;-44
2024/03/09 07:12:54;;;;;;;23.03;20.37;;;7.50;1.00;;;;;;4784219;29;20431;-45
2024/03/09 07:15:22;;;;;;;20.07;18.07;;;7.50;1.00;;;;;;4779224;29;20959;-42
2024/03/09 07:17:52;;;;;;;23.23;20.30;;;7.60;1.00;;;;;;4784561;29;20424;-46
2024/03/09 07:20:18;;;;;;;21.93;19.70;;;7.60;1.00;;;;;;4786032;29;20475;-45
2024/03/09 07:22:48;;;;;;;22.17;19.60;;;7.60;1.00;;;;;;4791462;29;20500;-45
2024/03/09 07:25:14;;;;;;;22.47;20.03;;;7.60;1.00;;;;;;4783728;29;20482;-47
2024/03/09 07:27:41;;;;;;;22.60;20.27;;;7.70;1.00;;;;;;4787206;29;20991;-42
2024/03/09 07:30:09;;;;;;;22.57;20.13;;;7.70;1.00;;;;;;4780252;29;20793;-44
2024/03/09 07:32:39;;;;;;;21.63;19.53;;;7.70;1.00;;;;;;4791754;29;20456;-42
2024/03/09 07:35:18;;;;;;;21.23;19.10;;;7.70;1.00;;;;;;4784393;29;20535;-59
2024/03/09 07:37:55;;;;;;;21.80;19.63;;;7.70;1.00;;;;;;4790141;29;20428;-47
2024/03/09 07:40:22;;;;;;;22.17;19.53;;;7.80;1.00;;;;;;4781199;29;20468;-59
2024/03/09 07:42:48;;;;;;;20.83;18.60;;;7.70;1.00;;;;;;4781947;29;20444;-59
2024/03/09 07:45:15;;;;;;;20.20;18.07;;;7.70;1.00;;;;;;4786567;29;20425;-59
2024/03/09 07:47:45;;;;;;;22.30;20.03;;;7.70;1.00;;;;;;4787530;29;21091;-58
2024/03/09 07:50:15;;;;;;;23.80;20.70;;;7.70;1.00;;;;;;4782581;29;20445;-59
2024/03/09 07:52:43;;;;;;;27.03;21.13;;;7.70;1.00;;;;;;4788589;29;20997;-59
2024/03/09 07:55:09;;;;;;;21.37;19.10;;;7.60;1.00;;;;;;4794129;29;20420;-58
2024/03/09 07:57:37;;;;;;;21.53;19.33;;;7.70;1.00;;;;;;4786241;29;20528;-58
2024/03/09 08:00:09;;;;;;;21.80;19.50;;;7.60;1.00;;;;;;4783395;29;20967;-59
2024/03/09 08:02:36;;;;;;;22.13;19.73;;;7.70;1.00;;;;;;4801589;29;20460;-57
2024/03/09 08:05:07;;;;;;;21.10;18.87;;;7.60;1.00;;;;;;4792741;29;20857;-59
2024/03/09 08:07:35;;;;;;;22.93;20.50;;;7.70;1.00;;;;;;4789367;29;20535;-58
2024/03/09 08:10:00;;;;;;;22.20;19.93;;;7.70;1.00;;;;;;4790753;29;20428;-59
2024/03/09 08:12:26;;;;;;;21.53;19.20;;;7.70;1.00;;;;;;4789672;29;20447;-59
2024/03/09 08:14:52;;;;;;;22.10;19.80;;;7.80;1.00;;;;;;4781068;29;20202;-58
2024/03/09 08:17:18;;;;;;;24.60;21.60;;;7.80;1.00;;;;;;4792965;29;20954;-56
2024/03/09 08:19:43;;;;;;;24.80;21.23;;;7.80;1.00;;;;;;4791964;29;20214;-59
2024/03/09 08:22:09;;;;;;;23.20;20.97;;;7.90;1.00;;;;;;4793269;29;21259;-60
2024/03/09 08:24:35;;;;;;;24.30;21.80;;;8.00;1.00;;;;;;4782452;29;21401;-58
2024/03/09 08:27:02;;;;;;;22.93;20.70;;;8.00;1.00;;;;;;4792826;29;20266;-57
2024/03/09 08:29:29;;;;;;;23.20;20.80;;;8.00;1.00;;;;;;4789889;29;20277;-44
2024/03/09 08:31:57;;;;;;;22.37;20.07;;;8.10;1.00;;;;;;4791684;29;20467;-47
2024/03/09 08:34:22;;;;;;;24.73;22.13;;;8.10;1.00;;;;;;4793242;29;20428;-43
2024/03/09 08:36:48;;;;;;;22.70;20.40;;;8.10;1.00;;;;;;4788617;29;21112;-45
2024/03/09 08:39:14;;;;;;;22.03;19.80;;;8.20;1.00;;;;;;4786653;29;20315;-46
2024/03/09 08:41:39;;;;;;;24.30;20.73;;;8.20;1.00;;;;;;4789719;29;20202;-42
2024/03/09 08:44:07;;;;;;;23.77;21.17;;;8.30;1.00;;;;;;4781092;29;20194;-45
2024/03/09 08:46:33;;;;;;;26.13;21.50;;;8.50;1.00;;;;;;4784069;29;20408;-43
2024/03/09 08:48:59;;;;;;;22.90;20.60;;;8.70;1.00;;;;;;4793858;29;20464;-47
2024/03/09 08:51:24;;;;;;;24.00;21.40;;;9.30;1.00;;;;;;4790147;29;20535;-44
2024/03/09 08:53:50;;;;;;;22.27;19.97;;;9.70;1.00;;;;;;4784218;29;20188;-43
2024/03/09 08:56:17;;;;;;;22.00;19.70;;;10.00;1.00;;;;;;4793858;29;20254;-47
2024/03/09 08:58:42;;;;;;;21.17;19.17;;;10.10;1.00;;;;;;4784643;29;20218;-44
2024/03/09 09:01:09;;;;;;;21.90;19.70;;;10.00;1.00;;;;;;4792650;29;20526;-43
2024/03/09 09:03:35;;;;;;;22.03;19.73;;;10.10;1.00;;;;;;4785359;29;20566;-59
2024/03/09 09:06:01;;;;;;;22.60;20.40;;;10.00;1.00;;;;;;4787558;29;20480;-59
2024/03/09 09:08:28;;;;;;;21.87;19.77;;;10.00;1.00;;;;;;4781315;29;20247;-58
2024/03/09 09:10:54;;;;;;;22.73;20.47;;;10.00;1.00;;;;;;4785861;29;21080;-59
2024/03/09 09:13:22;;;;;;;23.53;21.10;;;9.90;1.00;;;;;;4792013;29;20435;-58
2024/03/09 09:15:48;;;;;;;22.50;20.30;;;10.10;1.00;;;;;;4784762;29;20455;-59
2024/03/09 09:18:15;;;;;;;21.77;19.70;;;10.30;1.00;;;;;;4786803;29;20444;-59
2024/03/09 09:20:41;;;;;;;23.40;21.00;;;10.60;1.00;;;;;;4793160;29;20278;-60
2024/03/09 09:23:10;;;;;;;22.57;20.23;;;11.00;1.00;;;;;;4787220;29;20508;-58
2024/03/09 09:25:36;;;;;;;22.83;20.47;;;11.30;1.00;;;;;;4793749;29;20969;-59
2024/03/09 09:28:05;;;;;;;21.50;19.40;;;11.60;1.00;;;;;;4784666;29;20432;-59
2024/03/09 09:30:31;;;;;;;23.17;20.87;;;12.20;1.00;;;;;;4792903;29;20436;-59
2024/03/09 09:32:57;;;;;;;22.87;20.40;;;12.50;99.90;;;;;;4788454;29;20492;-59
2024/03/09 09:35:23;;;;;;;22.87;20.57;;;12.60;99.90;;;;;;4779464;29;20531;-59
2024/03/09 09:37:48;;;;;;;21.67;19.60;;;12.40;99.90;;;;;;4787858;29;20223;-59
2024/03/09 09:40:14;;;;;;;21.77;19.57;;;12.40;99.90;;;;;;4797112;29;20222;-59
2024/03/09 09:42:43;;;;;;;21.30;19.30;;;12.90;99.90;;;;;;4793370;29;20222;-59
2024/03/09 09:45:17;;;;;;;21.57;19.57;;;13.30;99.90;;;;;;4796105;29;20247;-59
2024/03/09 09:47:46;;;;;;;22.07;19.97;;;13.70;99.90;;;;;;4793778;29;20421;-59
2024/03/09 09:50:18;;;;;;;21.30;19.40;;;14.10;99.90;;;;;;4794567;29;20551;-59
2024/03/09 09:52:49;;;;;;;21.27;19.27;;;13.50;99.90;;;;;;4783313;29;20451;-59
2024/03/09 09:55:16;;;;;;;21.37;19.37;;;13.70;99.90;;;;;;4796795;29;20428;-53
2024/03/09 09:57:43;;;;;;;19.60;17.70;;;14.20;99.90;;;;;;4794707;29;20500;-59
2024/03/09 10:00:13;;;;;;;19.90;17.90;;;14.70;99.90;;;;;;4796668;29;20971;-52
2024/03/09 10:02:41;;;;;;;19.63;17.83;;;15.00;99.90;;;;;;4794387;29;20444;-59
2024/03/09 10:05:14;;;;;;;19.53;17.87;;;15.00;99.90;;;;;;4783112;29;20560;-59
2024/03/09 10:08:04;;;;;;;18.97;17.23;;;14.70;99.90;;;;;;4795931;29;20467;-59
2024/03/09 10:10:41;;;;;;;19.23;17.60;;;14.90;99.90;;;;;;4810688;29;20435;-59
2024/03/09 10:13:16;;;;;;;18.83;17.13;;;14.80;99.90;;;;;;4793638;29;20424;-59
2024/03/09 10:15:45;;;;;;;17.57;15.97;;;15.10;99.90;;;;;;4796369;29;20428;-59
2024/03/09 10:18:16;;;;;;;19.50;17.70;;;14.20;99.90;;;;;;4787264;29;20536;-59
2024/03/09 10:20:41;;;;;;;19.00;17.40;;;13.90;99.90;;;;;;4780599;29;20586;-58
2024/03/09 10:23:11;;;;;;;17.47;15.97;;;13.60;99.90;;;;;;4780103;29;20427;-59
2024/03/09 10:25:41;;;;;;;19.67;17.77;;;13.60;99.90;;;;;;4796245;29;21014;-59
2024/03/09 10:28:10;;;;;;;18.07;16.50;;;13.40;99.90;;;;;;4794960;29;20424;-58
2024/03/09 10:30:40;;;;;;;18.50;16.80;;;13.40;99.90;;;;;;4782784;29;20470;-59
2024/03/09 10:33:10;;;;;;;18.47;16.73;;;13.80;99.90;;;;;;4788792;29;21588;-58
2024/03/09 10:35:41;;;;;;;17.50;15.90;;;13.70;99.90;;;;;;4791704;29;20436;-56
2024/03/09 10:38:09;;;;;;;17.97;16.47;;;13.60;99.90;;;;;;4796142;29;20429;-53
2024/03/09 10:40:35;;;;;;;17.40;15.90;;;14.10;99.90;;;;;;4785231;29;20520;-57
2024/03/09 10:43:02;;;;;;;16.53;15.03;;;14.50;99.90;;;;;;4792317;29;20482;-55
2024/03/09 10:45:33;;;;;;;17.00;15.60;;;14.80;99.90;;;;;;4791220;29;20417;-58
2024/03/09 10:48:05;;;;;;;18.03;16.53;;;15.20;99.90;;;;;;4794755;29;20416;-59
2024/03/09 10:50:37;;;;;;;18.87;17.27;;;15.60;99.90;;;;;;4792912;29;21136;-55
2024/03/09 10:53:08;;;;;;;18.27;16.60;;;15.30;99.90;;;;;;4795283;29;21009;-56
2024/03/09 10:55:55;;;;;;;17.97;16.57;;;15.30;99.90;;;;;;4792741;29;20432;-57
2024/03/09 10:58:25;;;;;;;17.63;16.13;;;15.50;99.90;;;;;;4795464;29;20459;-57
2024/03/09 11:00:52;;;;;;;17.13;15.83;;;15.80;99.90;;;;;;4793093;29;20483;-58
2024/03/09 11:03:23;;;;;;;17.73;16.13;;;15.60;99.90;;;;;;4791965;29;20431;-58
2024/03/09 11:05:49;;;;;;;18.10;16.50;;;15.20;99.90;;;;;;4788534;29;20693;-58
2024/03/09 11:08:19;;;;;;;17.07;15.67;;;14.90;99.90;;;;;;4796102;29;20527;-58
2024/03/09 11:10:46;;;;;;;18.47;16.87;;;15.40;99.90;;;;;;4786119;29;20436;-59
2024/03/09 11:13:14;;;;;;;18.20;16.60;;;15.70;99.90;;;;;;4790507;29;20508;-58
2024/03/09 11:15:40;;;;;;;18.90;17.33;;;15.60;99.90;;;;;;4784485;29;20443;-58
2024/03/09 11:18:10;;;;;;;18.60;16.93;;;16.10;99.90;;;;;;4795922;29;21357;-53
2024/03/09 11:20:54;;;;;;;18.73;17.17;;;16.50;99.90;;;;;;4786211;29;20475;-56
2024/03/09 11:23:23;;;;;;;17.57;15.97;;;16.20;99.90;;;;;;4787671;29;20448;-43
2024/03/09 11:25:51;;;;;;;19.00;17.30;;;14.80;99.90;;;;;;4781951;29;20440;-45
2024/03/09 11:28:22;;;;;;;18.90;17.30;;;14.20;99.90;;;;;;4782705;29;20460;-42
2024/03/09 11:31:11;;;;;;;18.47;16.77;;;13.60;99.90;;;;;;4793219;29;20450;-57
2024/03/09 11:33:44;;;;;;;18.13;16.63;;;13.50;99.90;;;;;;4795307;29;21310;-49
2024/03/09 11:36:45;;;;;;;18.77;17.07;;;13.20;99.90;;;;;;4781303;29;20432;-57
2024/03/09 11:39:13;;;;;;;19.73;17.90;;;13.00;99.90;;;;;;4777981;29;20473;-56
2024/03/09 11:41:46;;;;;;;18.57;16.97;;;13.00;99.90;;;;;;4790957;29;21578;-56
2024/03/09 11:44:22;;;;;;;20.30;18.30;;;12.80;99.90;;;;;;4793696;29;20528;-58
2024/03/09 11:46:49;;;;;;;20.00;18.00;;;12.60;99.90;;;;;;4794824;29;20423;-57
2024/03/09 11:49:16;;;;;;;20.33;18.37;;;12.40;99.90;;;;;;4794929;29;20900;-50
2024/03/09 11:51:42;;;;;;;18.93;17.23;;;12.00;99.90;;;;;;4792803;29;20444;-56
2024/03/09 11:54:12;;;;;;;19.07;17.47;;;12.00;99.90;;;;;;4779381;29;20448;-56
2024/03/09 11:56:38;;;;;;;19.00;17.33;;;11.80;99.90;;;;;;4790093;29;20440;-56
2024/03/09 11:59:07;;;;;;;17.90;16.30;;;11.70;99.90;;;;;;4797798;29;20481;-58
2024/03/09 12:01:35;;;;;;;18.23;16.63;;;11.50;99.90;;;;;;4789457;29;20946;-59
2024/03/09 12:04:02;;;;;;;19.47;17.67;;;11.90;99.90;;;;;;4787870;29;20763;-57
2024/03/09 12:06:28;;;;;;;18.87;17.33;;;12.00;99.90;;;;;;4791988;29;20542;-58
2024/03/09 12:08:55;;;;;;;19.93;18.17;;;11.80;99.90;;;;;;4793872;29;20436;-53
2024/03/09 12:11:30;;;;;;;18.63;17.03;;;11.70;99.90;;;;;;4791996;29;20191;-56
2024/03/09 12:13:57;;;;;;;17.47;15.97;;;11.80;99.90;;;;;;4791820;29;20427;-58
2024/03/09 12:16:26;;;;;;;17.77;16.07;;;11.90;99.90;;;;;;4794348;29;20431;-54
2024/03/09 12:18:54;;;;;;;17.63;15.93;;;12.10;99.90;;;;;;4785569;29;20432;-53
2024/03/09 12:21:22;;;;;;;18.33;16.73;;;12.60;99.90;;;;;;4781370;29;20437;-56
2024/03/09 12:23:52;;;;;;;19.63;17.83;;;13.40;99.90;;;;;;4792820;29;20435;-42
2024/03/09 12:26:21;;;;;;;19.80;18.10;;;13.70;99.90;;;;;;4805947;29;20448;-46
2024/03/09 12:28:47;;;;;;;18.87;17.37;;;13.60;99.90;;;;;;4787341;29;20470;-49
2024/03/09 12:31:13;;;;;;;19.70;18.00;;;13.40;99.90;;;;;;4784886;29;20425;-42
2024/03/09 12:33:40;;;;;;;19.70;18.00;;;13.00;99.90;;;;;;4793849;29;20916;-58
2024/03/09 12:36:15;;;;;;;18.17;16.57;;;12.80;99.90;;;;;;4787296;29;20425;-59
2024/03/09 12:38:41;;;;;;;19.07;17.47;;;12.60;99.90;;;;;;4794391;29;20431;-58
2024/03/09 12:41:28;;;;;;;20.37;18.67;;;12.70;99.90;;;;;;4786326;29;20976;-59
2024/03/09 12:44:05;;;;;;;20.07;18.27;;;13.20;99.90;;;;;;4783056;29;21568;-57